createdAt,value
2022-11-12T00:01:42.924Z,103076.50
2022-11-12T00:06:44.467Z,103085.28
2022-11-12T00:11:45.932Z,103068.47
2022-11-12T00:16:47.404Z,103085.88
2022-11-12T00:21:48.903Z,103073.44
2022-11-12T00:26:50.399Z,103072.97
2022-11-12T00:31:51.867Z,103080.31
2022-11-12T00:36:53.306Z,103084.03
2022-11-12T00:41:55.167Z,103083.16
2022-11-12T00:46:57.009Z,103082.28
2022-11-12T00:51:58.477Z,103080.13
2022-11-12T00:57:00.549Z,103085.19
2022-11-12T01:02:02.069Z,103084.59
2022-11-12T01:07:03.579Z,103083.13
2022-11-12T01:12:05.125Z,103081.78
2022-11-12T01:17:06.594Z,103074.31
2022-11-12T01:22:08.077Z,103080.91
2022-11-12T01:27:09.543Z,103088.78
2022-11-12T01:32:11.002Z,103081.69
2022-11-12T01:37:12.519Z,103075.69
2022-11-12T01:42:13.992Z,103094.91
2022-11-12T01:47:29.222Z,103078.09
2022-11-12T01:52:56.728Z,103084.81
2022-11-12T01:58:04.582Z,103080.88
2022-11-12T02:03:11.561Z,103079.22
2022-11-12T02:08:13.715Z,103073.91
2022-11-12T02:13:34.044Z,103089.34
2022-11-12T02:18:35.546Z,103093.13
2022-11-12T02:23:37.591Z,103101.75
2022-11-12T02:28:39.059Z,103085.78
2022-11-12T02:33:41.125Z,103083.72
2022-11-12T02:38:42.630Z,103079.59
2022-11-12T02:49:09.076Z,103079.06
2022-11-12T02:54:10.906Z,103078.97
2022-11-12T02:59:12.383Z,103073.09
2022-11-12T03:04:13.914Z,103064.06
2022-11-12T03:09:15.798Z,103060.34
2022-11-12T03:14:17.260Z,103047.38
2022-11-12T03:19:18.736Z,103050.97
2022-11-12T03:24:20.240Z,103058.16
2022-11-12T03:29:21.704Z,103066.47
2022-11-12T03:34:23.169Z,103056.44
2022-11-12T03:39:24.651Z,103064.47
2022-11-12T03:44:26.108Z,103061.88
2022-11-12T03:49:27.576Z,103068.41
2022-11-12T03:54:29.041Z,103069.38
2022-11-12T03:59:30.489Z,103071.66
2022-11-12T04:04:51.926Z,103079.38
2022-11-12T04:09:53.388Z,103084.25
2022-11-12T04:14:54.867Z,103090.34
2022-11-12T04:20:14.953Z,103090.56
2022-11-12T04:25:35.264Z,103081.91
2022-11-12T04:30:36.720Z,103075.03
2022-11-12T04:35:38.180Z,103079.16
2022-11-12T04:40:57.941Z,103074.84
2022-11-12T04:46:00.696Z,103077.47
2022-11-12T04:51:27.878Z,103081.06
2022-11-12T04:56:29.342Z,103077.59
2022-11-12T05:01:30.862Z,103073.44
2022-11-12T05:06:50.781Z,103077.31
2022-11-12T05:11:53.359Z,103075.66
2022-11-12T05:16:54.852Z,103082.19
2022-11-12T05:22:05.731Z,103073.34
2022-11-12T05:27:14.401Z,103060.41
2022-11-12T05:32:16.891Z,103060.41
2022-11-12T05:37:18.413Z,103062.56
2022-11-12T05:42:19.877Z,103062.69
2022-11-12T05:47:21.365Z,103053.63
2022-11-12T05:52:22.864Z,103056.34
2022-11-12T05:57:27.339Z,103063.94
2022-11-12T06:02:28.853Z,103062.09
2022-11-12T06:07:30.377Z,103049.56
2022-11-12T06:12:31.853Z,103063.06
2022-11-12T06:17:33.349Z,103057.75
2022-11-12T06:22:34.961Z,103051.72
2022-11-12T06:27:37.031Z,103065.91
2022-11-12T06:32:38.481Z,103074.63
2022-11-12T06:37:39.930Z,103070.25
2022-11-12T06:42:41.433Z,103069.31
2022-11-12T06:47:42.893Z,103083.78
2022-11-12T06:52:44.370Z,103071.81
2022-11-12T06:57:51.037Z,103084.53
2022-11-12T07:02:52.507Z,103092.81
2022-11-12T07:07:54.456Z,103080.69
2022-11-12T07:12:55.945Z,103108.06
2022-11-12T07:17:57.416Z,103106.31
2022-11-12T07:23:02.152Z,103111.47
2022-11-12T07:28:03.778Z,103116.59
2022-11-12T07:33:05.239Z,103119.44
2022-11-12T07:38:06.711Z,103117.41
2022-11-12T07:43:08.179Z,103115.53
2022-11-12T07:48:09.657Z,103119.78
2022-11-12T07:53:11.121Z,103120.56
2022-11-12T07:58:12.606Z,103123.97
2022-11-12T08:03:14.056Z,103129.44
2022-11-12T08:08:15.833Z,103138.97
2022-11-12T08:13:17.322Z,103133.31
2022-11-12T08:18:18.761Z,103136.59
2022-11-12T08:23:20.212Z,103127.56
2022-11-12T08:28:21.697Z,103129.19
2022-11-12T08:33:23.315Z,103127.81
2022-11-12T08:38:25.144Z,103114.78
2022-11-12T08:43:26.941Z,103121.53
2022-11-12T08:48:29.736Z,103131.81
2022-11-12T08:53:31.802Z,103125.50
2022-11-12T08:58:33.311Z,103128.97
2022-11-12T09:03:34.979Z,103125.06
2022-11-12T09:08:37.900Z,103127.78
2022-11-12T09:13:39.485Z,103135.09
2022-11-12T09:18:41.005Z,103145.31
2022-11-12T09:23:42.452Z,103139.78
2022-11-12T09:28:43.909Z,103135.09
2022-11-12T09:33:45.377Z,103138.63
2022-11-12T09:38:46.906Z,103142.28
2022-11-12T09:43:53.970Z,103157.56
2022-11-12T09:49:06.381Z,103157.47
2022-11-12T09:54:19.689Z,103156.16
2022-11-12T09:59:22.696Z,103144.31
2022-11-12T10:04:42.232Z,103153.69
2022-11-12T10:09:55.777Z,103152.41
2022-11-12T10:15:29.918Z,103154.25
2022-11-12T10:20:42.958Z,103147.28
2022-11-12T10:25:47.575Z,103149.78
2022-11-12T10:30:49.057Z,103146.50
2022-11-12T10:35:52.770Z,103147.78
2022-11-12T10:40:54.312Z,103148.31
2022-11-12T10:46:18.357Z,103147.53
2022-11-12T10:51:26.908Z,103152.25
2022-11-12T10:56:32.427Z,103148.03
2022-11-12T11:01:35.904Z,103131.19
2022-11-12T11:06:37.820Z,103133.41
2022-11-12T11:11:49.732Z,103140.41
2022-11-12T11:17:08.299Z,103131.19
2022-11-12T11:22:27.698Z,103128.34
2022-11-12T11:27:29.124Z,103133.88
2022-11-12T11:32:52.469Z,103126.06
2022-11-12T11:38:31.401Z,103126.75
2022-11-12T11:43:42.961Z,103139.66
2022-11-12T11:48:56.996Z,103143.91
2022-11-12T11:53:58.442Z,103133.56
2022-11-12T11:59:13.482Z,103131.25
2022-11-12T12:04:45.471Z,103133.09
2022-11-12T12:10:09.842Z,103122.97
2022-11-12T12:15:36.311Z,103110.31
2022-11-12T12:21:04.423Z,103101.59
2022-11-12T12:26:14.299Z,103093.97
2022-11-12T12:31:20.882Z,103089.19
2022-11-12T12:36:30.772Z,103092.22
2022-11-12T12:41:44.749Z,103083.94
2022-11-12T12:46:59.168Z,103072.78
2022-11-12T12:52:00.792Z,103078.91
2022-11-12T12:57:25.637Z,103073.34
2022-11-12T13:02:27.121Z,103069.31
2022-11-12T13:07:45.590Z,103073.34
2022-11-12T13:13:19.339Z,103060.47
2022-11-12T13:18:39.640Z,103054.66
2022-11-12T13:24:08.787Z,103031.88
2022-11-12T13:29:28.674Z,103022.03
2022-11-12T13:34:33.538Z,103010.91
2022-11-12T13:39:36.302Z,103012.53
2022-11-12T13:44:37.851Z,103005.50
2022-11-12T13:49:39.415Z,103009.56
2022-11-12T13:54:41.068Z,103005.13
2022-11-12T13:59:42.593Z,102995.47
2022-11-12T14:04:44.253Z,102979.94
2022-11-12T14:10:04.619Z,102962.50
2022-11-12T14:15:40.828Z,102972.78
2022-11-12T14:20:42.496Z,102967.09
2022-11-12T14:25:48.159Z,102978.53
2022-11-12T14:30:49.703Z,102975.84
2022-11-12T14:35:52.517Z,102967.88
2022-11-12T14:40:56.933Z,102960.41
2022-11-12T14:46:01.826Z,102966.22
2022-11-12T14:51:09.499Z,102962.84
2022-11-12T14:56:15.913Z,102959.16
2022-11-12T15:06:55.999Z,102953.97
2022-11-12T15:11:58.626Z,102952.97
2022-11-12T15:17:00.958Z,102950.13
2022-11-12T15:22:04.165Z,102927.84
2022-11-12T15:27:33.404Z,102949.41
2022-11-12T15:32:34.956Z,102956.75
2022-11-12T15:37:42.820Z,102952.50
2022-11-12T15:42:46.761Z,102954.34
2022-11-12T15:47:48.470Z,102948.16
2022-11-12T15:52:50.750Z,102955.22
2022-11-12T15:57:53.041Z,102959.16
2022-11-12T16:03:05.809Z,102961.38
2022-11-12T16:08:08.137Z,102952.06
2022-11-12T16:13:31.037Z,102949.69
2022-11-12T16:18:32.692Z,102947.91
2022-11-12T16:23:34.205Z,102945.59
2022-11-12T16:28:36.139Z,102942.75
2022-11-12T16:33:37.620Z,102943.41
2022-11-12T16:38:39.087Z,102935.69
2022-11-12T16:43:40.580Z,102938.28
2022-11-12T16:48:42.101Z,102946.94
2022-11-12T16:53:43.841Z,102942.34
2022-11-12T16:58:45.994Z,102932.66
2022-11-12T17:03:48.858Z,102929.94
2022-11-12T17:08:54.449Z,102934.50
2022-11-12T17:13:55.948Z,102929.94
2022-11-12T17:18:59.120Z,102932.78
2022-11-12T17:24:00.573Z,102930.91
2022-11-12T17:29:07.662Z,102924.69
2022-11-12T17:34:09.898Z,102922.56
2022-11-12T17:39:12.669Z,102931.25
2022-11-12T17:44:18.450Z,102933.75
2022-11-12T17:49:19.998Z,102933.88
2022-11-12T17:54:21.629Z,102932.13
2022-11-12T17:59:23.096Z,102932.13
2022-11-12T18:04:26.617Z,102933.88
2022-11-12T18:09:31.406Z,102923.28
2022-11-12T18:14:32.874Z,102929.50
2022-11-12T18:19:34.337Z,102926.50
2022-11-12T18:24:35.929Z,102926.97
2022-11-12T18:29:37.390Z,102910.03
2022-11-12T18:34:44.350Z,102928.22
2022-11-12T18:39:45.830Z,102933.03
2022-11-12T18:44:47.531Z,102926.06
2022-11-12T18:49:49.035Z,102927.19
2022-11-12T18:54:50.505Z,102926.41
2022-11-12T18:59:54.891Z,102916.28
2022-11-12T19:04:56.407Z,102912.56
2022-11-12T19:09:57.888Z,102900.91
2022-11-12T19:14:59.341Z,102899.78
2022-11-12T19:20:00.811Z,102897.38
2022-11-12T19:25:03.638Z,102905.69
2022-11-12T19:30:06.872Z,102902.75
2022-11-12T19:35:08.814Z,102896.41
2022-11-12T19:40:11.855Z,102894.91
2022-11-12T19:45:13.729Z,102895.31
2022-11-12T19:50:15.473Z,102882.69
2022-11-12T19:55:17.041Z,102891.84
2022-11-12T20:00:18.743Z,102876.25
2022-11-12T20:05:20.304Z,102886.59
2022-11-12T20:10:22.501Z,102895.53
2022-11-12T20:15:24.032Z,102884.97
2022-11-12T20:20:25.505Z,102896.81
2022-11-12T20:25:26.967Z,102886.97
2022-11-12T20:30:28.439Z,102876.06
2022-11-12T20:35:29.990Z,102872.47
2022-11-12T20:40:32.355Z,102872.47
2022-11-12T20:45:35.144Z,102888.50
2022-11-12T20:50:36.930Z,102886.59
2022-11-12T20:55:39.434Z,102878.69
2022-11-12T21:00:40.890Z,102888.44
2022-11-12T21:05:42.447Z,102877.13
2022-11-12T21:10:49.146Z,102882.88
2022-11-12T21:15:51.873Z,102879.41
2022-11-12T21:21:06.897Z,102868.44
2022-11-12T21:26:13.887Z,102868.22
2022-11-12T21:31:27.151Z,102870.38
2022-11-12T21:36:30.348Z,102866.13
2022-11-12T21:41:32.171Z,102862.53
2022-11-12T21:46:35.840Z,102878.44
2022-11-12T21:51:37.451Z,102873.81
2022-11-12T21:56:40.217Z,102867.19
2022-11-12T22:01:43.493Z,102870.41
2022-11-12T22:06:45.045Z,102857.41
2022-11-12T22:11:46.552Z,102859.94
2022-11-12T22:16:48.590Z,102858.59
2022-11-12T22:21:50.041Z,102853.69
2022-11-12T22:26:51.497Z,102859.88
2022-11-12T22:31:52.940Z,102859.69
2022-11-12T22:36:54.415Z,102855.22
2022-11-12T22:41:55.890Z,102855.53
2022-11-12T22:46:57.969Z,102843.16
2022-11-12T22:51:59.466Z,102834.84
2022-11-12T22:57:00.948Z,102835.47
2022-11-12T23:02:02.407Z,102842.34
2022-11-12T23:07:04.215Z,102842.38
2022-11-12T23:12:05.848Z,102837.25
2022-11-12T23:17:07.330Z,102827.88
2022-11-12T23:22:08.792Z,102827.41
2022-11-12T23:27:10.261Z,102825.22
2022-11-12T23:32:11.977Z,102814.38
2022-11-12T23:37:13.447Z,102816.00
2022-11-12T23:42:14.969Z,102801.78
2022-11-12T23:47:16.465Z,102799.84
2022-11-12T23:52:19.082Z,102795.81
2022-11-12T23:57:20.652Z,102788.66
